sensor_id;sensor_type;location;lat;lon;timestamp;pressure;altitude;pressure_sealevel;temperature;humidity
77725;BME280;66892;53.236;6.550;2023-02-19T00:00:00;101588.22;;;8.14;97.37
77725;BME280;66892;53.236;6.550;2023-02-19T00:02:26;101583.91;;;8.19;97.11
77725;BME280;66892;53.236;6.550;2023-02-19T00:04:52;101586.53;;;8.17;96.93
77725;BME280;66892;53.236;6.550;2023-02-19T00:07:20;101587.38;;;8.15;97.03
77725;BME280;66892;53.236;6.550;2023-02-19T00:09:46;101589.00;;;8.08;97.13
77725;BME280;66892;53.236;6.550;2023-02-19T00:12:12;101589.00;;;8.08;97.09
77725;BME280;66892;53.236;6.550;2023-02-19T00:14:38;101590.84;;;8.14;97.06
77725;BME280;66892;53.236;6.550;2023-02-19T00:17:04;101589.94;;;8.13;96.80
77725;BME280;66892;53.236;6.550;2023-02-19T00:19:30;101593.47;;;8.14;96.81
77725;BME280;66892;53.236;6.550;2023-02-19T00:21:56;101586.38;;;8.10;97.10
77725;BME280;66892;53.236;6.550;2023-02-19T00:24:23;101598.69;;;8.11;96.77
77725;BME280;66892;53.236;6.550;2023-02-19T00:26:49;101592.56;;;8.12;96.85
77725;BME280;66892;53.236;6.550;2023-02-19T00:29:17;101592.63;;;8.15;96.61
77725;BME280;66892;53.236;6.550;2023-02-19T00:31:44;101594.22;;;8.05;96.81
77725;BME280;66892;53.236;6.550;2023-02-19T00:34:11;101593.38;;;8.08;96.87
77725;BME280;66892;53.236;6.550;2023-02-19T00:36:39;101587.31;;;8.13;96.71
77725;BME280;66892;53.236;6.550;2023-02-19T00:39:06;101588.94;;;8.07;96.85
77725;BME280;66892;53.236;6.550;2023-02-19T00:41:34;101584.50;;;8.03;97.00
77725;BME280;66892;53.236;6.550;2023-02-19T00:44:01;101577.47;;;8.02;97.16
77725;BME280;66892;53.236;6.550;2023-02-19T00:46:29;101588.00;;;8.02;97.00
77725;BME280;66892;53.236;6.550;2023-02-19T00:48:56;101587.94;;;8.00;96.90
77725;BME280;66892;53.236;6.550;2023-02-19T00:51:24;101580.97;;;8.02;97.24
77725;BME280;66892;53.236;6.550;2023-02-19T00:53:51;101579.19;;;8.01;97.43
77725;BME280;66892;53.236;6.550;2023-02-19T00:56:18;101579.25;;;8.03;97.31
77725;BME280;66892;53.236;6.550;2023-02-19T00:58:46;101580.03;;;8.00;97.52
77725;BME280;66892;53.236;6.550;2023-02-19T01:01:12;101574.84;;;8.03;97.46
77725;BME280;66892;53.236;6.550;2023-02-19T01:03:39;101577.47;;;8.02;97.94
77725;BME280;66892;53.236;6.550;2023-02-19T01:06:07;101574.81;;;8.02;97.57
77725;BME280;66892;53.236;6.550;2023-02-19T01:08:33;101574.94;;;8.08;97.32
77725;BME280;66892;53.236;6.550;2023-02-19T01:11:00;101571.47;;;8.10;96.80
77725;BME280;66892;53.236;6.550;2023-02-19T01:13:26;101574.88;;;8.05;97.43
77725;BME280;66892;53.236;6.550;2023-02-19T01:16:01;101582.75;;;8.03;96.99
77725;BME280;66892;53.236;6.550;2023-02-19T01:18:28;101583.66;;;8.05;97.36
77725;BME280;66892;53.236;6.550;2023-02-19T01:20:54;101593.25;;;8.02;97.51
77725;BME280;66892;53.236;6.550;2023-02-19T01:23:20;101587.22;;;8.07;97.38
77725;BME280;66892;53.236;6.550;2023-02-19T01:25:46;101594.47;;;8.20;96.93
77725;BME280;66892;53.236;6.550;2023-02-19T01:28:12;101621.63;;;8.16;97.00
77725;BME280;66892;53.236;6.550;2023-02-19T01:30:38;101611.78;;;7.64;94.10
77725;BME280;66892;53.236;6.550;2023-02-19T01:33:07;101615.47;;;7.30;95.58
77725;BME280;66892;53.236;6.550;2023-02-19T01:35:33;101619.38;;;7.10;95.38
77725;BME280;66892;53.236;6.550;2023-02-19T01:38:02;101629.41;;;6.89;95.48
77725;BME280;66892;53.236;6.550;2023-02-19T01:40:29;101633.44;;;6.75;95.15
77725;BME280;66892;53.236;6.550;2023-02-19T01:42:55;101626.88;;;6.58;95.92
77725;BME280;66892;53.236;6.550;2023-02-19T01:45:24;101644.31;;;6.56;96.34
77725;BME280;66892;53.236;6.550;2023-02-19T01:47:55;101648.66;;;6.54;96.24
77725;BME280;66892;53.236;6.550;2023-02-19T01:50:27;101645.00;;;6.49;96.28
77725;BME280;66892;53.236;6.550;2023-02-19T01:52:55;101652.56;;;6.35;96.42
77725;BME280;66892;53.236;6.550;2023-02-19T01:55:21;101654.59;;;6.45;95.66
77725;BME280;66892;53.236;6.550;2023-02-19T01:57:52;101650.94;;;6.40;95.41
77725;BME280;66892;53.236;6.550;2023-02-19T02:00:19;101661.34;;;6.35;95.74
77725;BME280;66892;53.236;6.550;2023-02-19T02:02:48;101664.56;;;6.25;95.82
77725;BME280;66892;53.236;6.550;2023-02-19T02:05:22;101659.00;;;6.15;95.76
77725;BME280;66892;53.236;6.550;2023-02-19T02:07:51;101660.63;;;6.10;96.67
77725;BME280;66892;53.236;6.550;2023-02-19T02:10:35;101657.09;;;6.09;97.06
77725;BME280;66892;53.236;6.550;2023-02-19T02:13:01;101648.34;;;6.10;97.29
77725;BME280;66892;53.236;6.550;2023-02-19T02:15:35;101654.56;;;6.12;97.42
77725;BME280;66892;53.236;6.550;2023-02-19T02:18:09;101663.25;;;6.10;97.32
77725;BME280;66892;53.236;6.550;2023-02-19T02:20:52;101671.56;;;5.95;96.48
77725;BME280;66892;53.236;6.550;2023-02-19T02:23:32;101665.31;;;5.90;96.41
77725;BME280;66892;53.236;6.550;2023-02-19T02:26:15;101665.88;;;5.81;96.53
77725;BME280;66892;53.236;6.550;2023-02-19T02:29:20;101669.47;;;5.85;97.05
77725;BME280;66892;53.236;6.550;2023-02-19T02:31:54;101673.19;;;5.90;97.33
77725;BME280;66892;53.236;6.550;2023-02-19T02:34:25;101677.31;;;5.83;97.00
77725;BME280;66892;53.236;6.550;2023-02-19T02:36:54;101674.63;;;5.80;97.13
77725;BME280;66892;53.236;6.550;2023-02-19T02:39:24;101682.41;;;5.77;97.16
77725;BME280;66892;53.236;6.550;2023-02-19T02:41:55;101678.97;;;5.80;97.03
77725;BME280;66892;53.236;6.550;2023-02-19T02:44:41;101678.88;;;5.77;97.46
77725;BME280;66892;53.236;6.550;2023-02-19T02:47:30;101692.09;;;5.80;97.35
77725;BME280;66892;53.236;6.550;2023-02-19T02:50:08;101695.63;;;5.82;97.42
77725;BME280;66892;53.236;6.550;2023-02-19T02:52:37;101707.03;;;5.82;97.58
77725;BME280;66892;53.236;6.550;2023-02-19T02:55:25;101706.13;;;5.82;96.99
77725;BME280;66892;53.236;6.550;2023-02-19T02:57:54;101705.34;;;5.84;97.20
77725;BME280;66892;53.236;6.550;2023-02-19T03:00:22;101722.84;;;5.84;96.86
77725;BME280;66892;53.236;6.550;2023-02-19T03:02:50;101730.94;;;5.90;96.88
77725;BME280;66892;53.236;6.550;2023-02-19T03:05:20;101745.91;;;5.94;95.93
77725;BME280;66892;53.236;6.550;2023-02-19T03:08:09;101746.03;;;5.97;95.48
77725;BME280;66892;53.236;6.550;2023-02-19T03:10:39;101750.22;;;5.92;96.02
77725;BME280;66892;53.236;6.550;2023-02-19T03:13:09;101751.94;;;5.90;96.80
77725;BME280;66892;53.236;6.550;2023-02-19T03:15:59;101752.84;;;5.92;96.83
77725;BME280;66892;53.236;6.550;2023-02-19T03:18:48;101758.94;;;5.91;96.36
77725;BME280;66892;53.236;6.550;2023-02-19T03:21:34;101763.25;;;5.89;96.99
77725;BME280;66892;53.236;6.550;2023-02-19T03:24:03;101767.53;;;5.86;97.11
77725;BME280;66892;53.236;6.550;2023-02-19T03:26:50;101765.69;;;5.84;97.14
77725;BME280;66892;53.236;6.550;2023-02-19T03:29:20;101767.16;;;5.75;96.40
77725;BME280;66892;53.236;6.550;2023-02-19T03:31:53;101779.34;;;5.73;96.77
77725;BME280;66892;53.236;6.550;2023-02-19T03:34:23;101782.69;;;5.67;96.01
77725;BME280;66892;53.236;6.550;2023-02-19T03:36:54;101788.84;;;5.69;96.99
77725;BME280;66892;53.236;6.550;2023-02-19T03:39:21;101794.91;;;5.67;96.83
77725;BME280;66892;53.236;6.550;2023-02-19T03:41:55;101797.53;;;5.67;96.98
77725;BME280;66892;53.236;6.550;2023-02-19T03:44:29;101800.16;;;5.67;97.09
77725;BME280;66892;53.236;6.550;2023-02-19T03:47:03;101813.72;;;5.80;96.70
77725;BME280;66892;53.236;6.550;2023-02-19T03:49:39;101819.72;;;5.78;96.16
77725;BME280;66892;53.236;6.550;2023-02-19T03:52:13;101825.78;;;5.75;95.51
77725;BME280;66892;53.236;6.550;2023-02-19T03:54:47;101838.16;;;5.79;94.88
77725;BME280;66892;53.236;6.550;2023-02-19T03:57:19;101827.38;;;5.70;95.46
77725;BME280;66892;53.236;6.550;2023-02-19T03:59:47;101842.97;;;5.66;95.93
77725;BME280;66892;53.236;6.550;2023-02-19T04:02:18;101831.44;;;5.61;96.32
77725;BME280;66892;53.236;6.550;2023-02-19T04:04:53;101833.97;;;5.58;96.39
77725;BME280;66892;53.236;6.550;2023-02-19T04:07:20;101832.19;;;5.57;96.69
77725;BME280;66892;53.236;6.550;2023-02-19T04:09:48;101840.75;;;5.51;96.03
77725;BME280;66892;53.236;6.550;2023-02-19T04:12:17;101845.94;;;5.50;96.30
77725;BME280;66892;53.236;6.550;2023-02-19T04:14:46;101854.69;;;5.50;96.06
77725;BME280;66892;53.236;6.550;2023-02-19T04:17:19;101860.09;;;5.55;95.13
77725;BME280;66892;53.236;6.550;2023-02-19T04:19:48;101865.25;;;5.52;95.54
77725;BME280;66892;53.236;6.550;2023-02-19T04:22:16;101877.47;;;5.51;96.39
77725;BME280;66892;53.236;6.550;2023-02-19T04:24:46;101878.09;;;5.44;95.96
77725;BME280;66892;53.236;6.550;2023-02-19T04:27:13;101879.00;;;5.45;96.51
77725;BME280;66892;53.236;6.550;2023-02-19T04:29:40;101879.72;;;5.41;96.22
77725;BME280;66892;53.236;6.550;2023-02-19T04:32:06;101884.75;;;5.35;96.28
77725;BME280;66892;53.236;6.550;2023-02-19T04:34:33;101892.53;;;5.31;96.13
77725;BME280;66892;53.236;6.550;2023-02-19T04:37:01;101899.91;;;5.43;96.13
77725;BME280;66892;53.236;6.550;2023-02-19T04:39:27;101909.38;;;5.38;95.87
77725;BME280;66892;53.236;6.550;2023-02-19T04:41:53;101917.72;;;5.52;95.32
77725;BME280;66892;53.236;6.550;2023-02-19T04:44:19;101921.69;;;5.41;95.83
77725;BME280;66892;53.236;6.550;2023-02-19T04:46:45;101925.09;;;5.38;95.47
77725;BME280;66892;53.236;6.550;2023-02-19T04:49:11;101926.63;;;5.31;95.61
77725;BME280;66892;53.236;6.550;2023-02-19T04:51:37;101922.88;;;5.25;95.46
77725;BME280;66892;53.236;6.550;2023-02-19T04:54:05;101926.31;;;5.22;95.03
77725;BME280;66892;53.236;6.550;2023-02-19T04:56:31;101930.69;;;5.23;94.41
77725;BME280;66892;53.236;6.550;2023-02-19T04:58:57;101930.75;;;5.25;94.64
77725;BME280;66892;53.236;6.550;2023-02-19T05:01:24;101940.84;;;5.14;95.40
77725;BME280;66892;53.236;6.550;2023-02-19T05:03:50;101949.22;;;5.04;95.13
77725;BME280;66892;53.236;6.550;2023-02-19T05:06:16;101949.00;;;4.98;94.52
77725;BME280;66892;53.236;6.550;2023-02-19T05:08:42;101962.00;;;4.95;93.91
77725;BME280;66892;53.236;6.550;2023-02-19T05:11:11;101964.59;;;4.95;93.62
77725;BME280;66892;53.236;6.550;2023-02-19T05:13:37;101962.97;;;4.97;93.85
77725;BME280;66892;53.236;6.550;2023-02-19T05:16:06;101972.97;;;4.85;94.29
77725;BME280;66892;53.236;6.550;2023-02-19T05:18:33;101979.28;;;4.90;93.46
77725;BME280;66892;53.236;6.550;2023-02-19T05:21:00;101982.69;;;4.88;94.44
77725;BME280;66892;53.236;6.550;2023-02-19T05:23:27;101988.97;;;4.93;94.12
77725;BME280;66892;53.236;6.550;2023-02-19T05:25:53;102002.56;;;4.83;94.48
77725;BME280;66892;53.236;6.550;2023-02-19T05:28:21;102005.31;;;4.86;93.86
77725;BME280;66892;53.236;6.550;2023-02-19T05:30:54;102013.91;;;4.82;94.66
77725;BME280;66892;53.236;6.550;2023-02-19T05:33:24;102019.66;;;4.73;94.14
77725;BME280;66892;53.236;6.550;2023-02-19T05:35:53;102020.56;;;4.73;95.40
77725;BME280;66892;53.236;6.550;2023-02-19T05:38:19;102020.09;;;4.84;94.18
77725;BME280;66892;53.236;6.550;2023-02-19T05:40:46;102025.03;;;4.76;94.55
77725;BME280;66892;53.236;6.550;2023-02-19T05:43:12;102027.53;;;4.73;94.58
77725;BME280;66892;53.236;6.550;2023-02-19T05:45:40;102027.88;;;4.82;94.41
77725;BME280;66892;53.236;6.550;2023-02-19T05:48:07;102029.56;;;4.80;94.83
77725;BME280;66892;53.236;6.550;2023-02-19T05:50:34;102031.13;;;4.75;96.03
77725;BME280;66892;53.236;6.550;2023-02-19T05:53:01;102038.97;;;4.75;95.57
77725;BME280;66892;53.236;6.550;2023-02-19T05:55:28;102036.34;;;4.75;95.60
77725;BME280;66892;53.236;6.550;2023-02-19T05:57:54;102042.41;;;4.74;96.02
77725;BME280;66892;53.236;6.550;2023-02-19T06:00:21;102047.06;;;4.81;94.81
77725;BME280;66892;53.236;6.550;2023-02-19T06:02:48;102049.06;;;4.88;94.26
77725;BME280;66892;53.236;6.550;2023-02-19T06:05:14;102057.13;;;4.93;93.42
77725;BME280;66892;53.236;6.550;2023-02-19T06:07:40;102066.59;;;4.89;94.22
77725;BME280;66892;53.236;6.550;2023-02-19T06:10:08;102076.19;;;4.89;94.02
77725;BME280;66892;53.236;6.550;2023-02-19T06:12:34;102085.00;;;4.91;94.60
77725;BME280;66892;53.236;6.550;2023-02-19T06:15:00;102079.41;;;4.82;94.79
77725;BME280;66892;53.236;6.550;2023-02-19T06:17:26;102088.34;;;4.87;94.69
77725;BME280;66892;53.236;6.550;2023-02-19T06:19:53;102093.34;;;4.81;95.99
77725;BME280;66892;53.236;6.550;2023-02-19T06:22:19;102107.34;;;4.81;95.18
77725;BME280;66892;53.236;6.550;2023-02-19T06:24:46;102111.50;;;4.76;95.84
77725;BME280;66892;53.236;6.550;2023-02-19T06:27:12;102115.28;;;4.62;95.78
77725;BME280;66892;53.236;6.550;2023-02-19T06:29:38;102129.13;;;4.59;96.16
77725;BME280;66892;53.236;6.550;2023-02-19T06:32:05;102131.19;;;4.66;96.12
77725;BME280;66892;53.236;6.550;2023-02-19T06:34:31;102134.50;;;4.62;95.99
77725;BME280;66892;53.236;6.550;2023-02-19T06:36:59;102138.34;;;4.70;95.56
77725;BME280;66892;53.236;6.550;2023-02-19T06:39:26;102141.78;;;4.69;95.34
77725;BME280;66892;53.236;6.550;2023-02-19T06:41:53;102143.09;;;4.58;95.07
77725;BME280;66892;53.236;6.550;2023-02-19T06:44:19;102157.78;;;4.55;95.96
77725;BME280;66892;53.236;6.550;2023-02-19T06:46:46;102166.59;;;4.57;95.39
77725;BME280;66892;53.236;6.550;2023-02-19T06:49:12;102170.19;;;4.59;95.18
77725;BME280;66892;53.236;6.550;2023-02-19T06:51:38;102174.19;;;4.51;95.12
77725;BME280;66892;53.236;6.550;2023-02-19T06:54:05;102181.59;;;4.61;94.99
77725;BME280;66892;53.236;6.550;2023-02-19T06:56:33;102188.56;;;4.60;95.26
77725;BME280;66892;53.236;6.550;2023-02-19T06:59:01;102186.75;;;4.59;95.28
77725;BME280;66892;53.236;6.550;2023-02-19T07:01:29;102188.44;;;4.57;94.96
77725;BME280;66892;53.236;6.550;2023-02-19T07:03:56;102193.00;;;4.61;94.65
77725;BME280;66892;53.236;6.550;2023-02-19T07:06:23;102203.22;;;4.55;94.51
77725;BME280;66892;53.236;6.550;2023-02-19T07:08:50;102209.25;;;4.54;95.64
77725;BME280;66892;53.236;6.550;2023-02-19T07:11:18;102217.94;;;4.53;95.50
77725;BME280;66892;53.236;6.550;2023-02-19T07:13:44;102213.59;;;4.54;95.83
77725;BME280;66892;53.236;6.550;2023-02-19T07:16:11;102220.50;;;4.52;95.78
77725;BME280;66892;53.236;6.550;2023-02-19T07:18:38;102207.97;;;4.45;95.86
77725;BME280;66892;53.236;6.550;2023-02-19T07:21:05;102212.59;;;4.31;95.39
77725;BME280;66892;53.236;6.550;2023-02-19T07:23:31;102223.31;;;4.16;95.69
77725;BME280;66892;53.236;6.550;2023-02-19T07:25:58;102213.25;;;4.06;96.50
77725;BME280;66892;53.236;6.550;2023-02-19T07:28:25;102213.31;;;4.08;96.58
77725;BME280;66892;53.236;6.550;2023-02-19T07:30:52;102204.16;;;4.17;96.65
77725;BME280;66892;53.236;6.550;2023-02-19T07:33:18;102199.13;;;4.22;97.00
77725;BME280;66892;53.236;6.550;2023-02-19T07:35:45;102197.66;;;4.29;96.83
77725;BME280;66892;53.236;6.550;2023-02-19T07:38:11;102197.59;;;4.27;96.90
77725;BME280;66892;53.236;6.550;2023-02-19T07:40:37;102199.00;;;4.19;96.49
77725;BME280;66892;53.236;6.550;2023-02-19T07:43:03;102208.06;;;4.08;96.66
77725;BME280;66892;53.236;6.550;2023-02-19T07:45:31;102202.31;;;3.96;96.97
77725;BME280;66892;53.236;6.550;2023-02-19T07:47:57;102200.53;;;3.95;97.50
77725;BME280;66892;53.236;6.550;2023-02-19T07:50:23;102201.13;;;3.89;97.16
77725;BME280;66892;53.236;6.550;2023-02-19T07:52:49;102205.53;;;3.90;97.56
77725;BME280;66892;53.236;6.550;2023-02-19T07:55:15;102211.81;;;3.94;97.13
77725;BME280;66892;53.236;6.550;2023-02-19T07:57:41;102218.84;;;3.95;97.34
77725;BME280;66892;53.236;6.550;2023-02-19T08:00:08;102229.09;;;3.90;96.64
77725;BME280;66892;53.236;6.550;2023-02-19T08:02:35;102229.78;;;3.86;97.03
77725;BME280;66892;53.236;6.550;2023-02-19T08:05:20;102233.91;;;3.81;97.07
77725;BME280;66892;53.236;6.550;2023-02-19T08:07:46;102244.56;;;3.86;97.00
77725;BME280;66892;53.236;6.550;2023-02-19T08:10:12;102247.00;;;3.81;97.08
77725;BME280;66892;53.236;6.550;2023-02-19T08:12:57;102259.22;;;3.82;96.98
77725;BME280;66892;53.236;6.550;2023-02-19T08:15:42;102251.06;;;3.75;97.29
77725;BME280;66892;53.236;6.550;2023-02-19T08:18:10;102257.22;;;3.77;97.47
77725;BME280;66892;53.236;6.550;2023-02-19T08:20:36;102270.94;;;3.71;97.33
77725;BME280;66892;53.236;6.550;2023-02-19T08:23:03;102276.31;;;3.74;97.11
77725;BME280;66892;53.236;6.550;2023-02-19T08:25:29;102286.38;;;3.84;97.40
77725;BME280;66892;53.236;6.550;2023-02-19T08:27:55;102280.78;;;3.77;97.12
77725;BME280;66892;53.236;6.550;2023-02-19T08:30:21;102280.63;;;3.91;96.45
77725;BME280;66892;53.236;6.550;2023-02-19T08:32:48;102290.47;;;4.16;95.93
77725;BME280;66892;53.236;6.550;2023-02-19T08:35:16;102297.84;;;4.24;94.04
77725;BME280;66892;53.236;6.550;2023-02-19T08:37:42;102303.28;;;4.10;95.18
77725;BME280;66892;53.236;6.550;2023-02-19T08:40:09;102306.69;;;4.07;95.56
77725;BME280;66892;53.236;6.550;2023-02-19T08:42:35;102304.34;;;4.13;95.36
77725;BME280;66892;53.236;6.550;2023-02-19T08:45:01;102315.19;;;4.03;95.73
77725;BME280;66892;53.236;6.550;2023-02-19T08:47:27;102326.91;;;4.11;95.32
77725;BME280;66892;53.236;6.550;2023-02-19T08:49:53;102336.97;;;4.21;95.02
77725;BME280;66892;53.236;6.550;2023-02-19T08:52:20;102332.94;;;4.28;94.90
77725;BME280;66892;53.236;6.550;2023-02-19T08:54:46;102340.59;;;4.23;95.17
77725;BME280;66892;53.236;6.550;2023-02-19T08:57:12;102351.25;;;4.28;95.86
77725;BME280;66892;53.236;6.550;2023-02-19T08:59:38;102358.34;;;4.31;95.37
77725;BME280;66892;53.236;6.550;2023-02-19T09:02:05;102366.06;;;4.28;95.10
77725;BME280;66892;53.236;6.550;2023-02-19T09:04:31;102375.63;;;4.27;95.85
77725;BME280;66892;53.236;6.550;2023-02-19T09:06:57;102376.00;;;4.35;94.31
77725;BME280;66892;53.236;6.550;2023-02-19T09:09:25;102391.22;;;4.43;93.95
77725;BME280;66892;53.236;6.550;2023-02-19T09:11:51;102401.78;;;4.45;94.08
77725;BME280;66892;53.236;6.550;2023-02-19T09:14:17;102410.06;;;4.54;93.88
77725;BME280;66892;53.236;6.550;2023-02-19T09:16:43;102397.19;;;4.58;94.02
77725;BME280;66892;53.236;6.550;2023-02-19T09:19:09;102409.41;;;4.77;93.36
77725;BME280;66892;53.236;6.550;2023-02-19T09:21:35;102410.16;;;4.74;93.34
77725;BME280;66892;53.236;6.550;2023-02-19T09:24:01;102416.44;;;4.78;92.97
77725;BME280;66892;53.236;6.550;2023-02-19T09:26:28;102417.38;;;4.80;92.18
77725;BME280;66892;53.236;6.550;2023-02-19T09:28:54;102427.19;;;4.84;92.10
77725;BME280;66892;53.236;6.550;2023-02-19T09:31:21;102426.28;;;4.84;92.77
77725;BME280;66892;53.236;6.550;2023-02-19T09:33:47;102429.97;;;5.27;92.56
77725;BME280;66892;53.236;6.550;2023-02-19T09:36:14;102436.00;;;5.66;91.13
77725;BME280;66892;53.236;6.550;2023-02-19T09:38:41;102437.41;;;5.78;88.90
77725;BME280;66892;53.236;6.550;2023-02-19T09:41:12;102451.69;;;5.85;88.18
77725;BME280;66892;53.236;6.550;2023-02-19T09:43:41;102445.16;;;5.75;88.48
77725;BME280;66892;53.236;6.550;2023-02-19T09:46:16;102458.00;;;5.68;89.29
77725;BME280;66892;53.236;6.550;2023-02-19T09:48:46;102458.38;;;5.77;87.91
77725;BME280;66892;53.236;6.550;2023-02-19T09:51:13;102447.88;;;5.77;88.79
77725;BME280;66892;53.236;6.550;2023-02-19T09:53:43;102447.63;;;5.71;87.96
77725;BME280;66892;53.236;6.550;2023-02-19T09:56:10;102446.50;;;5.66;89.07
77725;BME280;66892;53.236;6.550;2023-02-19T09:58:42;102441.91;;;5.60;88.84
77725;BME280;66892;53.236;6.550;2023-02-19T10:01:11;102440.53;;;5.49;87.98
77725;BME280;66892;53.236;6.550;2023-02-19T10:03:39;102439.22;;;5.38;89.06
77725;BME280;66892;53.236;6.550;2023-02-19T10:06:13;102445.16;;;5.75;89.33
77725;BME280;66892;53.236;6.550;2023-02-19T10:08:42;102446.72;;;6.12;87.07
77725;BME280;66892;53.236;6.550;2023-02-19T10:11:10;102459.75;;;6.31;87.78
77725;BME280;66892;53.236;6.550;2023-02-19T10:13:43;102467.44;;;6.49;87.21
77725;BME280;66892;53.236;6.550;2023-02-19T10:16:12;102469.44;;;6.54;83.02
77725;BME280;66892;53.236;6.550;2023-02-19T10:18:42;102467.50;;;6.50;85.87
77725;BME280;66892;53.236;6.550;2023-02-19T10:21:12;102474.84;;;6.59;83.34
77725;BME280;66892;53.236;6.550;2023-02-19T10:23:40;102491.16;;;6.50;84.50
77725;BME280;66892;53.236;6.550;2023-02-19T10:26:07;102495.53;;;6.50;84.35
77725;BME280;66892;53.236;6.550;2023-02-19T10:28:34;102497.44;;;6.54;83.08
77725;BME280;66892;53.236;6.550;2023-02-19T10:31:04;102492.78;;;6.47;84.18
77725;BME280;66892;53.236;6.550;2023-02-19T10:33:31;102499.97;;;6.30;84.64
77725;BME280;66892;53.236;6.550;2023-02-19T10:35:58;102495.88;;;6.36;84.70
77725;BME280;66892;53.236;6.550;2023-02-19T10:38:27;102503.63;;;6.33;83.82
77725;BME280;66892;53.236;6.550;2023-02-19T10:40:58;102503.69;;;6.13;86.24
77725;BME280;66892;53.236;6.550;2023-02-19T10:43:27;102517.88;;;6.18;85.67
77725;BME280;66892;53.236;6.550;2023-02-19T10:45:58;102514.41;;;5.98;85.97
77725;BME280;66892;53.236;6.550;2023-02-19T10:48:30;102511.03;;;5.81;83.28
77725;BME280;66892;53.236;6.550;2023-02-19T10:50:58;102511.44;;;5.70;85.67
77725;BME280;66892;53.236;6.550;2023-02-19T10:53:41;102502.63;;;5.89;85.87
77725;BME280;66892;53.236;6.550;2023-02-19T10:56:09;102503.13;;;6.21;85.99
77725;BME280;66892;53.236;6.550;2023-02-19T10:58:37;102506.09;;;6.51;83.56
77725;BME280;66892;53.236;6.550;2023-02-19T11:01:16;102502.69;;;6.76;80.70
77725;BME280;66892;53.236;6.550;2023-02-19T11:03:47;102507.06;;;6.75;82.16
77725;BME280;66892;53.236;6.550;2023-02-19T11:06:16;102513.31;;;6.79;77.05
77725;BME280;66892;53.236;6.550;2023-02-19T11:08:53;102522.13;;;6.79;76.64
77725;BME280;66892;53.236;6.550;2023-02-19T11:11:31;102525.94;;;6.65;79.07
77725;BME280;66892;53.236;6.550;2023-02-19T11:14:00;102522.00;;;6.76;78.64
77725;BME280;66892;53.236;6.550;2023-02-19T11:16:45;102520.97;;;6.51;81.64
77725;BME280;66892;53.236;6.550;2023-02-19T11:19:35;102508.09;;;6.36;81.95
77725;BME280;66892;53.236;6.550;2023-02-19T11:22:18;102512.41;;;6.13;83.26
77725;BME280;66892;53.236;6.550;2023-02-19T11:24:47;102508.81;;;6.10;81.90
77725;BME280;66892;53.236;6.550;2023-02-19T11:27:17;102514.41;;;5.98;82.62
77725;BME280;66892;53.236;6.550;2023-02-19T11:29:43;102516.59;;;6.08;82.33
77725;BME280;66892;53.236;6.550;2023-02-19T11:32:22;102497.28;;;6.06;81.68
77725;BME280;66892;53.236;6.550;2023-02-19T11:34:51;102513.53;;;6.18;81.20
77725;BME280;66892;53.236;6.550;2023-02-19T11:37:19;102507.47;;;6.42;78.88
77725;BME280;66892;53.236;6.550;2023-02-19T11:39:47;102511.84;;;6.63;78.14
77725;BME280;66892;53.236;6.550;2023-02-19T11:42:24;102501.78;;;6.75;77.55
77725;BME280;66892;53.236;6.550;2023-02-19T11:44:55;102502.81;;;6.79;79.48
77725;BME280;66892;53.236;6.550;2023-02-19T11:47:36;102500.88;;;6.97;74.51
77725;BME280;66892;53.236;6.550;2023-02-19T11:50:15;102510.63;;;7.00;75.50
77725;BME280;66892;53.236;6.550;2023-02-19T11:52:53;102517.56;;;6.98;75.52
77725;BME280;66892;53.236;6.550;2023-02-19T11:55:33;102515.28;;;6.84;77.13
77725;BME280;66892;53.236;6.550;2023-02-19T11:58:14;102507.41;;;6.84;77.49
77725;BME280;66892;53.236;6.550;2023-02-19T12:00:54;102496.22;;;6.68;77.92
77725;BME280;66892;53.236;6.550;2023-02-19T12:03:33;102504.78;;;6.62;79.27
77725;BME280;66892;53.236;6.550;2023-02-19T12:06:15;102496.66;;;6.56;77.64
77725;BME280;66892;53.236;6.550;2023-02-19T12:08:58;102504.31;;;6.50;77.93
77725;BME280;66892;53.236;6.550;2023-02-19T12:11:36;102507.47;;;6.86;77.38
77725;BME280;66892;53.236;6.550;2023-02-19T12:17:12;102517.56;;;7.45;72.93
77725;BME280;66892;53.236;6.550;2023-02-19T12:19:59;102522.81;;;7.69;71.69
77725;BME280;66892;53.236;6.550;2023-02-19T12:22:30;102517.03;;;7.79;72.44
77725;BME280;66892;53.236;6.550;2023-02-19T12:25:15;102528.81;;;7.65;72.88
77725;BME280;66892;53.236;6.550;2023-02-19T12:27:54;102533.13;;;7.63;73.42
77725;BME280;66892;53.236;6.550;2023-02-19T12:30:34;102537.97;;;7.51;74.58
77725;BME280;66892;53.236;6.550;2023-02-19T12:33:29;102540.50;;;7.48;73.90
77725;BME280;66892;53.236;6.550;2023-02-19T12:36:03;102542.75;;;7.38;74.63
77725;BME280;66892;53.236;6.550;2023-02-19T12:38:40;102549.22;;;7.47;73.73
77725;BME280;66892;53.236;6.550;2023-02-19T12:41:18;102552.06;;;7.53;74.25
77725;BME280;66892;53.236;6.550;2023-02-19T12:43:52;102562.53;;;7.75;70.86
77725;BME280;66892;53.236;6.550;2023-02-19T12:46:23;102549.22;;;7.70;71.20
77725;BME280;66892;53.236;6.550;2023-02-19T12:48:54;102552.41;;;7.87;70.25
77725;BME280;66892;53.236;6.550;2023-02-19T12:51:27;102558.25;;;7.78;73.34
77725;BME280;66892;53.236;6.550;2023-02-19T12:54:00;102542.75;;;7.86;70.38
77725;BME280;66892;53.236;6.550;2023-02-19T12:56:29;102557.66;;;7.85;73.47
77725;BME280;66892;53.236;6.550;2023-02-19T12:59:03;102560.50;;;7.91;73.03
77725;BME280;66892;53.236;6.550;2023-02-19T13:01:30;102554.31;;;7.91;71.24
77725;BME280;66892;53.236;6.550;2023-02-19T13:04:13;102561.63;;;8.00;69.33
77725;BME280;66892;53.236;6.550;2023-02-19T13:06:45;102565.44;;;8.08;70.13
77725;BME280;66892;53.236;6.550;2023-02-19T13:09:19;102588.94;;;8.02;70.14
77725;BME280;66892;53.236;6.550;2023-02-19T13:11:49;102587.19;;;7.77;72.40
77725;BME280;66892;53.236;6.550;2023-02-19T13:14:21;102590.03;;;7.83;71.37
77725;BME280;66892;53.236;6.550;2023-02-19T13:16:53;102597.19;;;7.87;70.89